sensor_id;sensor_type;location;lat;lon;timestamp;P1;durP1;ratioP1;P2;durP2;ratioP2
15968;SDS011;8085;53.472;9.794;2024-01-30T00:00:34;7.70;;;4.65;;
15968;SDS011;8085;53.472;9.794;2024-01-30T00:03:01;7.20;;;4.63;;
15968;SDS011;8085;53.472;9.794;2024-01-30T00:05:28;8.15;;;4.93;;
15968;SDS011;8085;53.472;9.794;2024-01-30T00:07:55;8.00;;;4.38;;
15968;SDS011;8085;53.472;9.794;2024-01-30T00:10:23;9.77;;;5.03;;
15968;SDS011;8085;53.472;9.794;2024-01-30T00:12:51;8.38;;;5.15;;
15968;SDS011;8085;53.472;9.794;2024-01-30T00:15:22;8.93;;;4.43;;
15968;SDS011;8085;53.472;9.794;2024-01-30T00:17:50;8.60;;;4.80;;
15968;SDS011;8085;53.472;9.794;2024-01-30T00:20:21;9.90;;;4.85;;
15968;SDS011;8085;53.472;9.794;2024-01-30T00:22:48;7.45;;;4.80;;
15968;SDS011;8085;53.472;9.794;2024-01-30T00:25:15;7.40;;;4.45;;
15968;SDS011;8085;53.472;9.794;2024-01-30T00:27:45;8.45;;;5.03;;
15968;SDS011;8085;53.472;9.794;2024-01-30T00:30:12;8.45;;;4.43;;
15968;SDS011;8085;53.472;9.794;2024-01-30T00:32:43;7.72;;;5.00;;
15968;SDS011;8085;53.472;9.794;2024-01-30T00:35:10;8.43;;;4.60;;
15968;SDS011;8085;53.472;9.794;2024-01-30T00:37:37;7.68;;;4.40;;
15968;SDS011;8085;53.472;9.794;2024-01-30T00:40:06;7.90;;;4.97;;
15968;SDS011;8085;53.472;9.794;2024-01-30T00:42:35;7.55;;;4.75;;
15968;SDS011;8085;53.472;9.794;2024-01-30T00:45:11;9.88;;;5.15;;
15968;SDS011;8085;53.472;9.794;2024-01-30T00:47:38;8.85;;;4.90;;
15968;SDS011;8085;53.472;9.794;2024-01-30T00:50:05;9.10;;;4.65;;
15968;SDS011;8085;53.472;9.794;2024-01-30T00:52:33;8.80;;;5.07;;
15968;SDS011;8085;53.472;9.794;2024-01-30T00:55:00;13.40;;;6.05;;
15968;SDS011;8085;53.472;9.794;2024-01-30T00:57:27;6.57;;;4.60;;
15968;SDS011;8085;53.472;9.794;2024-01-30T00:59:54;8.38;;;4.80;;
15968;SDS011;8085;53.472;9.794;2024-01-30T01:02:23;9.15;;;5.03;;
15968;SDS011;8085;53.472;9.794;2024-01-30T01:04:50;7.13;;;4.50;;
15968;SDS011;8085;53.472;9.794;2024-01-30T01:07:20;9.02;;;4.95;;
15968;SDS011;8085;53.472;9.794;2024-01-30T01:09:46;7.57;;;4.70;;
15968;SDS011;8085;53.472;9.794;2024-01-30T01:12:13;7.22;;;4.60;;
15968;SDS011;8085;53.472;9.794;2024-01-30T01:14:41;8.73;;;4.82;;
15968;SDS011;8085;53.472;9.794;2024-01-30T01:17:08;9.27;;;5.32;;
15968;SDS011;8085;53.472;9.794;2024-01-30T01:19:36;7.75;;;4.70;;
15968;SDS011;8085;53.472;9.794;2024-01-30T01:22:07;7.18;;;4.65;;
15968;SDS011;8085;53.472;9.794;2024-01-30T01:24:35;7.65;;;4.55;;
15968;SDS011;8085;53.472;9.794;2024-01-30T01:27:02;9.77;;;4.80;;
15968;SDS011;8085;53.472;9.794;2024-01-30T01:29:30;8.15;;;4.55;;
15968;SDS011;8085;53.472;9.794;2024-01-30T01:31:57;9.30;;;5.13;;
15968;SDS011;8085;53.472;9.794;2024-01-30T01:34:24;6.85;;;4.43;;
15968;SDS011;8085;53.472;9.794;2024-01-30T01:36:54;6.65;;;4.25;;
15968;SDS011;8085;53.472;9.794;2024-01-30T01:39:22;7.43;;;4.60;;
15968;SDS011;8085;53.472;9.794;2024-01-30T01:41:49;8.27;;;4.93;;
15968;SDS011;8085;53.472;9.794;2024-01-30T01:44:17;7.72;;;4.68;;
15968;SDS011;8085;53.472;9.794;2024-01-30T01:46:44;8.15;;;4.65;;
15968;SDS011;8085;53.472;9.794;2024-01-30T01:49:11;6.10;;;4.38;;
15968;SDS011;8085;53.472;9.794;2024-01-30T01:51:39;8.45;;;4.97;;
15968;SDS011;8085;53.472;9.794;2024-01-30T01:54:11;8.35;;;4.70;;
15968;SDS011;8085;53.472;9.794;2024-01-30T01:56:38;8.13;;;4.68;;
15968;SDS011;8085;53.472;9.794;2024-01-30T01:59:06;6.65;;;4.45;;
15968;SDS011;8085;53.472;9.794;2024-01-30T02:01:34;7.68;;;4.90;;
15968;SDS011;8085;53.472;9.794;2024-01-30T02:04:03;8.20;;;4.78;;
15968;SDS011;8085;53.472;9.794;2024-01-30T02:06:31;8.95;;;5.18;;
15968;SDS011;8085;53.472;9.794;2024-01-30T02:08:58;11.98;;;5.68;;
15968;SDS011;8085;53.472;9.794;2024-01-30T02:11:26;7.97;;;4.57;;
15968;SDS011;8085;53.472;9.794;2024-01-30T02:13:54;9.68;;;5.28;;
15968;SDS011;8085;53.472;9.794;2024-01-30T02:16:21;8.75;;;4.78;;
15968;SDS011;8085;53.472;9.794;2024-01-30T02:18:51;7.32;;;5.00;;
15968;SDS011;8085;53.472;9.794;2024-01-30T02:21:19;11.30;;;5.28;;
15968;SDS011;8085;53.472;9.794;2024-01-30T02:23:46;7.80;;;5.15;;
15968;SDS011;8085;53.472;9.794;2024-01-30T02:26:14;8.63;;;4.70;;
15968;SDS011;8085;53.472;9.794;2024-01-30T02:28:41;8.88;;;5.18;;
15968;SDS011;8085;53.472;9.794;2024-01-30T02:31:10;9.93;;;5.43;;
15968;SDS011;8085;53.472;9.794;2024-01-30T02:33:37;9.32;;;4.78;;
15968;SDS011;8085;53.472;9.794;2024-01-30T02:36:04;13.70;;;5.50;;
15968;SDS011;8085;53.472;9.794;2024-01-30T02:38:33;8.32;;;5.95;;
15968;SDS011;8085;53.472;9.794;2024-01-30T02:41:00;9.38;;;5.07;;
15968;SDS011;8085;53.472;9.794;2024-01-30T02:43:28;9.27;;;5.28;;
15968;SDS011;8085;53.472;9.794;2024-01-30T02:45:55;7.93;;;5.13;;
15968;SDS011;8085;53.472;9.794;2024-01-30T02:48:23;7.60;;;5.15;;
15968;SDS011;8085;53.472;9.794;2024-01-30T02:50:50;9.82;;;5.45;;
15968;SDS011;8085;53.472;9.794;2024-01-30T02:53:17;7.38;;;4.85;;
15968;SDS011;8085;53.472;9.794;2024-01-30T02:55:45;7.78;;;5.22;;
15968;SDS011;8085;53.472;9.794;2024-01-30T02:58:12;8.68;;;4.93;;
15968;SDS011;8085;53.472;9.794;2024-01-30T03:00:39;10.20;;;5.47;;
15968;SDS011;8085;53.472;9.794;2024-01-30T03:03:06;8.57;;;5.60;;
15968;SDS011;8085;53.472;9.794;2024-01-30T03:05:33;8.20;;;5.22;;
15968;SDS011;8085;53.472;9.794;2024-01-30T03:08:00;9.27;;;5.32;;
15968;SDS011;8085;53.472;9.794;2024-01-30T03:10:27;8.82;;;5.55;;
15968;SDS011;8085;53.472;9.794;2024-01-30T03:13:01;13.93;;;6.75;;
15968;SDS011;8085;53.472;9.794;2024-01-30T03:15:28;10.48;;;5.57;;
15968;SDS011;8085;53.472;9.794;2024-01-30T03:17:55;8.95;;;5.82;;
15968;SDS011;8085;53.472;9.794;2024-01-30T03:20:22;11.63;;;6.13;;
15968;SDS011;8085;53.472;9.794;2024-01-30T03:22:50;8.77;;;5.70;;
15968;SDS011;8085;53.472;9.794;2024-01-30T03:25:18;9.45;;;5.90;;
15968;SDS011;8085;53.472;9.794;2024-01-30T03:27:45;10.75;;;5.80;;
15968;SDS011;8085;53.472;9.794;2024-01-30T03:30:14;8.18;;;5.85;;
15968;SDS011;8085;53.472;9.794;2024-01-30T03:32:41;8.80;;;5.43;;
15968;SDS011;8085;53.472;9.794;2024-01-30T03:35:10;13.48;;;6.45;;
15968;SDS011;8085;53.472;9.794;2024-01-30T03:37:37;12.98;;;6.15;;
15968;SDS011;8085;53.472;9.794;2024-01-30T03:40:06;8.55;;;5.68;;
15968;SDS011;8085;53.472;9.794;2024-01-30T03:42:34;10.80;;;5.90;;
15968;SDS011;8085;53.472;9.794;2024-01-30T03:45:01;12.38;;;6.40;;
15968;SDS011;8085;53.472;9.794;2024-01-30T03:47:30;10.45;;;6.00;;
15968;SDS011;8085;53.472;9.794;2024-01-30T03:49:57;9.57;;;6.00;;
15968;SDS011;8085;53.472;9.794;2024-01-30T03:52:25;14.43;;;6.03;;
15968;SDS011;8085;53.472;9.794;2024-01-30T03:54:52;10.70;;;6.05;;
15968;SDS011;8085;53.472;9.794;2024-01-30T03:57:19;13.00;;;6.32;;
15968;SDS011;8085;53.472;9.794;2024-01-30T03:59:47;11.40;;;6.60;;
15968;SDS011;8085;53.472;9.794;2024-01-30T04:02:14;12.63;;;6.47;;
15968;SDS011;8085;53.472;9.794;2024-01-30T04:04:42;10.10;;;5.72;;
15968;SDS011;8085;53.472;9.794;2024-01-30T04:07:09;8.90;;;5.80;;
15968;SDS011;8085;53.472;9.794;2024-01-30T04:09:36;11.02;;;6.30;;
15968;SDS011;8085;53.472;9.794;2024-01-30T04:12:04;10.75;;;5.78;;
15968;SDS011;8085;53.472;9.794;2024-01-30T04:14:32;11.77;;;5.95;;
15968;SDS011;8085;53.472;9.794;2024-01-30T04:16:59;11.18;;;6.43;;
15968;SDS011;8085;53.472;9.794;2024-01-30T04:19:26;10.02;;;6.05;;
15968;SDS011;8085;53.472;9.794;2024-01-30T04:21:54;10.57;;;6.43;;
15968;SDS011;8085;53.472;9.794;2024-01-30T04:24:21;11.40;;;6.15;;
15968;SDS011;8085;53.472;9.794;2024-01-30T04:26:48;10.35;;;6.05;;
15968;SDS011;8085;53.472;9.794;2024-01-30T04:29:15;9.02;;;6.13;;
15968;SDS011;8085;53.472;9.794;2024-01-30T04:31:43;9.13;;;5.85;;
15968;SDS011;8085;53.472;9.794;2024-01-30T04:34:10;11.65;;;6.97;;
15968;SDS011;8085;53.472;9.794;2024-01-30T04:36:37;9.43;;;6.30;;
15968;SDS011;8085;53.472;9.794;2024-01-30T04:39:08;12.57;;;6.68;;
15968;SDS011;8085;53.472;9.794;2024-01-30T04:41:35;12.90;;;7.10;;
15968;SDS011;8085;53.472;9.794;2024-01-30T04:44:02;11.15;;;6.55;;
15968;SDS011;8085;53.472;9.794;2024-01-30T04:46:33;11.05;;;6.35;;
15968;SDS011;8085;53.472;9.794;2024-01-30T04:49:01;12.30;;;6.57;;
15968;SDS011;8085;53.472;9.794;2024-01-30T04:51:28;12.55;;;6.97;;
15968;SDS011;8085;53.472;9.794;2024-01-30T04:53:55;11.50;;;6.53;;
15968;SDS011;8085;53.472;9.794;2024-01-30T04:56:24;11.50;;;6.47;;
15968;SDS011;8085;53.472;9.794;2024-01-30T04:58:51;15.43;;;6.72;;
15968;SDS011;8085;53.472;9.794;2024-01-30T05:01:18;10.43;;;6.10;;
15968;SDS011;8085;53.472;9.794;2024-01-30T05:03:45;11.27;;;7.00;;
15968;SDS011;8085;53.472;9.794;2024-01-30T05:06:12;11.57;;;7.32;;
15968;SDS011;8085;53.472;9.794;2024-01-30T05:08:42;10.80;;;6.55;;
15968;SDS011;8085;53.472;9.794;2024-01-30T05:11:09;10.23;;;6.70;;
15968;SDS011;8085;53.472;9.794;2024-01-30T05:13:37;12.88;;;6.45;;
15968;SDS011;8085;53.472;9.794;2024-01-30T05:16:04;10.68;;;6.57;;
15968;SDS011;8085;53.472;9.794;2024-01-30T05:18:31;11.55;;;6.65;;
15968;SDS011;8085;53.472;9.794;2024-01-30T05:20:58;11.50;;;6.95;;
15968;SDS011;8085;53.472;9.794;2024-01-30T05:23:25;13.95;;;6.90;;
15968;SDS011;8085;53.472;9.794;2024-01-30T05:25:52;12.32;;;7.00;;
15968;SDS011;8085;53.472;9.794;2024-01-30T05:28:19;12.93;;;7.03;;
15968;SDS011;8085;53.472;9.794;2024-01-30T05:30:47;10.63;;;6.57;;
15968;SDS011;8085;53.472;9.794;2024-01-30T05:33:15;9.25;;;6.43;;
15968;SDS011;8085;53.472;9.794;2024-01-30T05:35:42;9.75;;;6.20;;
15968;SDS011;8085;53.472;9.794;2024-01-30T05:38:11;11.90;;;6.50;;
15968;SDS011;8085;53.472;9.794;2024-01-30T05:40:39;12.30;;;6.63;;
15968;SDS011;8085;53.472;9.794;2024-01-30T05:43:07;11.63;;;6.82;;
15968;SDS011;8085;53.472;9.794;2024-01-30T05:45:34;13.40;;;7.13;;
15968;SDS011;8085;53.472;9.794;2024-01-30T05:48:03;11.38;;;6.78;;
15968;SDS011;8085;53.472;9.794;2024-01-30T05:50:32;10.18;;;6.93;;
15968;SDS011;8085;53.472;9.794;2024-01-30T05:52:59;12.93;;;7.50;;
15968;SDS011;8085;53.472;9.794;2024-01-30T05:55:33;11.73;;;6.40;;
15968;SDS011;8085;53.472;9.794;2024-01-30T05:58:02;12.80;;;7.30;;
15968;SDS011;8085;53.472;9.794;2024-01-30T06:00:29;12.43;;;7.32;;
15968;SDS011;8085;53.472;9.794;2024-01-30T06:02:56;12.65;;;7.00;;
15968;SDS011;8085;53.472;9.794;2024-01-30T06:05:25;13.75;;;7.25;;
15968;SDS011;8085;53.472;9.794;2024-01-30T06:07:52;13.05;;;7.07;;
15968;SDS011;8085;53.472;9.794;2024-01-30T06:10:20;13.02;;;7.13;;
15968;SDS011;8085;53.472;9.794;2024-01-30T06:12:47;11.00;;;6.93;;
15968;SDS011;8085;53.472;9.794;2024-01-30T06:15:14;11.25;;;7.43;;
15968;SDS011;8085;53.472;9.794;2024-01-30T06:17:41;12.77;;;6.70;;
15968;SDS011;8085;53.472;9.794;2024-01-30T06:20:09;13.00;;;7.70;;
15968;SDS011;8085;53.472;9.794;2024-01-30T06:22:37;14.75;;;7.35;;
15968;SDS011;8085;53.472;9.794;2024-01-30T06:25:05;13.48;;;7.32;;
15968;SDS011;8085;53.472;9.794;2024-01-30T06:27:32;10.52;;;7.07;;
15968;SDS011;8085;53.472;9.794;2024-01-30T06:29:59;11.93;;;7.15;;
15968;SDS011;8085;53.472;9.794;2024-01-30T06:32:27;12.55;;;6.78;;
15968;SDS011;8085;53.472;9.794;2024-01-30T06:34:59;13.23;;;7.55;;
15968;SDS011;8085;53.472;9.794;2024-01-30T06:37:26;10.90;;;6.55;;
15968;SDS011;8085;53.472;9.794;2024-01-30T06:39:54;14.57;;;7.10;;
15968;SDS011;8085;53.472;9.794;2024-01-30T06:42:21;10.90;;;6.53;;
15968;SDS011;8085;53.472;9.794;2024-01-30T06:44:48;11.57;;;7.20;;
15968;SDS011;8085;53.472;9.794;2024-01-30T06:47:15;14.15;;;6.88;;
15968;SDS011;8085;53.472;9.794;2024-01-30T06:49:42;11.52;;;6.85;;
15968;SDS011;8085;53.472;9.794;2024-01-30T06:52:10;11.40;;;7.00;;
15968;SDS011;8085;53.472;9.794;2024-01-30T06:54:39;14.52;;;7.20;;
15968;SDS011;8085;53.472;9.794;2024-01-30T06:57:07;12.70;;;7.38;;
15968;SDS011;8085;53.472;9.794;2024-01-30T06:59:37;18.40;;;7.30;;
15968;SDS011;8085;53.472;9.794;2024-01-30T07:02:08;12.88;;;7.55;;
15968;SDS011;8085;53.472;9.794;2024-01-30T07:04:40;11.32;;;6.93;;
15968;SDS011;8085;53.472;9.794;2024-01-30T07:07:07;12.27;;;7.55;;
15968;SDS011;8085;53.472;9.794;2024-01-30T07:10:03;13.63;;;7.35;;
15968;SDS011;8085;53.472;9.794;2024-01-30T07:12:40;14.77;;;7.57;;
15968;SDS011;8085;53.472;9.794;2024-01-30T07:15:07;12.32;;;6.85;;
15968;SDS011;8085;53.472;9.794;2024-01-30T07:17:35;11.13;;;6.70;;
15968;SDS011;8085;53.472;9.794;2024-01-30T07:20:04;13.38;;;6.68;;
15968;SDS011;8085;53.472;9.794;2024-01-30T07:22:38;14.32;;;7.32;;
15968;SDS011;8085;53.472;9.794;2024-01-30T07:25:10;14.27;;;7.53;;
15968;SDS011;8085;53.472;9.794;2024-01-30T07:27:46;15.10;;;7.68;;
15968;SDS011;8085;53.472;9.794;2024-01-30T07:30:16;14.55;;;7.43;;
15968;SDS011;8085;53.472;9.794;2024-01-30T07:32:51;12.27;;;7.15;;
15968;SDS011;8085;53.472;9.794;2024-01-30T07:35:19;12.82;;;7.22;;
15968;SDS011;8085;53.472;9.794;2024-01-30T07:37:49;16.38;;;7.47;;
15968;SDS011;8085;53.472;9.794;2024-01-30T07:40:35;11.98;;;6.95;;
15968;SDS011;8085;53.472;9.794;2024-01-30T07:43:04;13.18;;;7.45;;
15968;SDS011;8085;53.472;9.794;2024-01-30T07:45:31;12.77;;;7.35;;
15968;SDS011;8085;53.472;9.794;2024-01-30T07:47:58;12.23;;;7.25;;
15968;SDS011;8085;53.472;9.794;2024-01-30T07:50:26;12.90;;;7.18;;
15968;SDS011;8085;53.472;9.794;2024-01-30T07:52:59;12.68;;;7.32;;
15968;SDS011;8085;53.472;9.794;2024-01-30T07:55:27;12.20;;;6.95;;
15968;SDS011;8085;53.472;9.794;2024-01-30T07:57:56;13.48;;;7.32;;
15968;SDS011;8085;53.472;9.794;2024-01-30T08:00:25;12.32;;;6.95;;
15968;SDS011;8085;53.472;9.794;2024-01-30T08:02:52;12.88;;;7.15;;
15968;SDS011;8085;53.472;9.794;2024-01-30T08:05:20;11.75;;;7.03;;
15968;SDS011;8085;53.472;9.794;2024-01-30T08:07:48;12.75;;;7.20;;
15968;SDS011;8085;53.472;9.794;2024-01-30T08:10:15;12.32;;;7.15;;
15968;SDS011;8085;53.472;9.794;2024-01-30T08:12:45;11.15;;;6.47;;
15968;SDS011;8085;53.472;9.794;2024-01-30T08:15:12;10.90;;;6.88;;
15968;SDS011;8085;53.472;9.794;2024-01-30T08:17:41;12.98;;;7.25;;
15968;SDS011;8085;53.472;9.794;2024-01-30T08:20:08;15.38;;;7.60;;
15968;SDS011;8085;53.472;9.794;2024-01-30T08:22:42;12.45;;;7.28;;
15968;SDS011;8085;53.472;9.794;2024-01-30T08:25:09;13.15;;;7.57;;
15968;SDS011;8085;53.472;9.794;2024-01-30T08:27:36;16.42;;;7.65;;
15968;SDS011;8085;53.472;9.794;2024-01-30T08:30:09;13.90;;;7.22;;
15968;SDS011;8085;53.472;9.794;2024-01-30T08:33:00;12.93;;;7.25;;
15968;SDS011;8085;53.472;9.794;2024-01-30T08:35:29;12.93;;;7.38;;
15968;SDS011;8085;53.472;9.794;2024-01-30T08:38:42;10.98;;;6.75;;
15968;SDS011;8085;53.472;9.794;2024-01-30T08:41:13;11.48;;;7.03;;
15968;SDS011;8085;53.472;9.794;2024-01-30T08:43:43;13.15;;;6.90;;
15968;SDS011;8085;53.472;9.794;2024-01-30T08:46:26;13.02;;;6.65;;
15968;SDS011;8085;53.472;9.794;2024-01-30T08:56:01;11.20;;;6.68;;
15968;SDS011;8085;53.472;9.794;2024-01-30T08:58:54;12.90;;;7.03;;
15968;SDS011;8085;53.472;9.794;2024-01-30T09:08:57;11.77;;;6.50;;
15968;SDS011;8085;53.472;9.794;2024-01-30T09:15:47;13.27;;;7.32;;
15968;SDS011;8085;53.472;9.794;2024-01-30T09:18:14;10.27;;;6.43;;
15968;SDS011;8085;53.472;9.794;2024-01-30T09:20:41;11.68;;;6.55;;
15968;SDS011;8085;53.472;9.794;2024-01-30T09:23:14;12.40;;;6.85;;
15968;SDS011;8085;53.472;9.794;2024-01-30T09:25:43;17.80;;;7.00;;
15968;SDS011;8085;53.472;9.794;2024-01-30T09:28:10;12.25;;;7.28;;
15968;SDS011;8085;53.472;9.794;2024-01-30T09:30:38;11.30;;;7.03;;
15968;SDS011;8085;53.472;9.794;2024-01-30T09:33:07;10.88;;;6.85;;
15968;SDS011;8085;53.472;9.794;2024-01-30T09:35:34;15.18;;;8.07;;
15968;SDS011;8085;53.472;9.794;2024-01-30T09:38:02;11.90;;;6.95;;
15968;SDS011;8085;53.472;9.794;2024-01-30T09:40:29;14.35;;;7.38;;
15968;SDS011;8085;53.472;9.794;2024-01-30T09:42:56;15.30;;;7.22;;
15968;SDS011;8085;53.472;9.794;2024-01-30T09:47:56;11.85;;;6.55;;
15968;SDS011;8085;53.472;9.794;2024-01-30T09:50:27;12.10;;;6.55;;
15968;SDS011;8085;53.472;9.794;2024-01-30T09:52:55;12.43;;;6.70;;
15968;SDS011;8085;53.472;9.794;2024-01-30T09:55:24;11.38;;;6.90;;
15968;SDS011;8085;53.472;9.794;2024-01-30T09:57:52;14.73;;;6.95;;
15968;SDS011;8085;53.472;9.794;2024-01-30T10:00:19;13.82;;;7.22;;
15968;SDS011;8085;53.472;9.794;2024-01-30T10:02:48;9.60;;;6.38;;
15968;SDS011;8085;53.472;9.794;2024-01-30T10:05:15;11.38;;;6.60;;
15968;SDS011;8085;53.472;9.794;2024-01-30T10:07:56;10.45;;;6.40;;
15968;SDS011;8085;53.472;9.794;2024-01-30T10:10:25;13.90;;;6.93;;
15968;SDS011;8085;53.472;9.794;2024-01-30T10:12:52;11.60;;;7.13;;
15968;SDS011;8085;53.472;9.794;2024-01-30T10:15:19;11.68;;;6.20;;
15968;SDS011;8085;53.472;9.794;2024-01-30T10:17:45;12.88;;;6.88;;
15968;SDS011;8085;53.472;9.794;2024-01-30T10:20:12;10.93;;;6.72;;
15968;SDS011;8085;53.472;9.794;2024-01-30T10:22:41;11.35;;;7.13;;
15968;SDS011;8085;53.472;9.794;2024-01-30T10:25:12;10.50;;;6.57;;
15968;SDS011;8085;53.472;9.794;2024-01-30T10:27:41;11.10;;;6.60;;
15968;SDS011;8085;53.472;9.794;2024-01-30T10:30:11;12.60;;;6.45;;
15968;SDS011;8085;53.472;9.794;2024-01-30T10:32:39;10.80;;;6.30;;
15968;SDS011;8085;53.472;9.794;2024-01-30T10:35:06;12.10;;;8.00;;
15968;SDS011;8085;53.472;9.794;2024-01-30T10:37:34;13.57;;;6.78;;
15968;SDS011;8085;53.472;9.794;2024-01-30T10:40:03;10.95;;;5.90;;
15968;SDS011;8085;53.472;9.794;2024-01-30T10:42:32;11.57;;;5.63;;
15968;SDS011;8085;53.472;9.794;2024-01-30T10:45:05;13.55;;;6.93;;
15968;SDS011;8085;53.472;9.794;2024-01-30T10:47:44;11.60;;;6.18;;
15968;SDS011;8085;53.472;9.794;2024-01-30T10:50:15;10.90;;;6.60;;
15968;SDS011;8085;53.472;9.794;2024-01-30T10:52:45;12.65;;;6.00;;
15968;SDS011;8085;53.472;9.794;2024-01-30T10:55:13;13.27;;;6.03;;
15968;SDS011;8085;53.472;9.794;2024-01-30T10:57:44;11.38;;;6.20;;
15968;SDS011;8085;53.472;9.794;2024-01-30T11:00:13;9.90;;;5.93;;
15968;SDS011;8085;53.472;9.794;2024-01-30T11:02:41;10.52;;;6.00;;
15968;SDS011;8085;53.472;9.794;2024-01-30T11:05:09;9.00;;;5.32;;
15968;SDS011;8085;53.472;9.794;2024-01-30T11:07:38;11.40;;;5.53;;
15968;SDS011;8085;53.472;9.794;2024-01-30T11:10:06;7.97;;;5.38;;
15968;SDS011;8085;53.472;9.794;2024-01-30T11:12:37;9.40;;;5.55;;
15968;SDS011;8085;53.472;9.794;2024-01-30T11:15:08;12.93;;;6.45;;
15968;SDS011;8085;53.472;9.794;2024-01-30T11:17:42;9.98;;;5.70;;
15968;SDS011;8085;53.472;9.794;2024-01-30T11:20:09;10.00;;;5.82;;
15968;SDS011;8085;53.472;9.794;2024-01-30T11:22:40;11.00;;;6.15;;
15968;SDS011;8085;53.472;9.794;2024-01-30T11:25:12;10.43;;;5.45;;
15968;SDS011;8085;53.472;9.794;2024-01-30T11:27:40;11.43;;;6.10;;
15968;SDS011;8085;53.472;9.794;2024-01-30T11:30:09;11.70;;;6.15;;
15968;SDS011;8085;53.472;9.794;2024-01-30T11:32:37;11.38;;;6.22;;
15968;SDS011;8085;53.472;9.794;2024-01-30T11:35:04;8.43;;;5.75;;
15968;SDS011;8085;53.472;9.794;2024-01-30T11:37:34;11.98;;;5.80;;
15968;SDS011;8085;53.472;9.794;2024-01-30T11:40:04;10.43;;;6.43;;
15968;SDS011;8085;53.472;9.794;2024-01-30T11:42:31;11.07;;;6.00;;
15968;SDS011;8085;53.472;9.794;2024-01-30T11:44:59;10.90;;;6.20;;
15968;SDS011;8085;53.472;9.794;2024-01-30T11:47:29;9.52;;;6.38;;
15968;SDS011;8085;53.472;9.794;2024-01-30T11:49:56;11.35;;;6.35;;
15968;SDS011;8085;53.472;9.794;2024-01-30T11:52:23;10.00;;;5.90;;
15968;SDS011;8085;53.472;9.794;2024-01-30T11:54:50;10.13;;;5.97;;
15968;SDS011;8085;53.472;9.794;2024-01-30T11:57:17;10.82;;;6.15;;
15968;SDS011;8085;53.472;9.794;2024-01-30T11:59:44;13.23;;;6.53;;
15968;SDS011;8085;53.472;9.794;2024-01-30T12:02:15;11.32;;;6.15;;
15968;SDS011;8085;53.472;9.794;2024-01-30T12:04:44;12.05;;;6.35;;
15968;SDS011;8085;53.472;9.794;2024-01-30T12:07:11;11.82;;;6.22;;
15968;SDS011;8085;53.472;9.794;2024-01-30T12:09:51;10.60;;;6.32;;
15968;SDS011;8085;53.472;9.794;2024-01-30T12:12:21;9.32;;;6.20;;
15968;SDS011;8085;53.472;9.794;2024-01-30T12:14:48;15.45;;;6.85;;
15968;SDS011;8085;53.472;9.794;2024-01-30T12:17:22;9.73;;;6.13;;
15968;SDS011;8085;53.472;9.794;2024-01-30T12:19:51;9.07;;;5.72;;
15968;SDS011;8085;53.472;9.794;2024-01-30T12:22:29;10.93;;;6.28;;
15968;SDS011;8085;53.472;9.794;2024-01-30T12:24:57;11.73;;;6.75;;
15968;SDS011;8085;53.472;9.794;2024-01-30T12:27:24;11.50;;;5.93;;
15968;SDS011;8085;53.472;9.794;2024-01-30T12:29:55;11.02;;;6.22;;
15968;SDS011;8085;53.472;9.794;2024-01-30T12:32:23;12.63;;;6.32;;
15968;SDS011;8085;53.472;9.794;2024-01-30T12:34:50;10.00;;;6.63;;
15968;SDS011;8085;53.472;9.794;2024-01-30T12:37:20;10.90;;;6.07;;
15968;SDS011;8085;53.472;9.794;2024-01-30T12:39:51;9.52;;;5.70;;
15968;SDS011;8085;53.472;9.794;2024-01-30T12:42:21;10.05;;;6.13;;
15968;SDS011;8085;53.472;9.794;2024-01-30T12:44:48;13.80;;;6.43;;
15968;SDS011;8085;53.472;9.794;2024-01-30T12:47:16;11.35;;;6.32;;
15968;SDS011;8085;53.472;9.794;2024-01-30T12:49:43;9.65;;;5.65;;
15968;SDS011;8085;53.472;9.794;2024-01-30T12:52:11;9.40;;;6.00;;
15968;SDS011;8085;53.472;9.794;2024-01-30T12:54:40;11.57;;;5.88;;
15968;SDS011;8085;53.472;9.794;2024-01-30T12:57:07;16.10;;;6.18;;
15968;SDS011;8085;53.472;9.794;2024-01-30T12:59:34;10.43;;;6.00;;
15968;SDS011;8085;53.472;9.794;2024-01-30T13:02:01;10.35;;;6.15;;
15968;SDS011;8085;53.472;9.794;2024-01-30T13:04:28;9.48;;;5.47;;
15968;SDS011;8085;53.472;9.794;2024-01-30T13:06:57;10.60;;;5.95;;
15968;SDS011;8085;53.472;9.794;2024-01-30T13:09:29;10.75;;;6.20;;
15968;SDS011;8085;53.472;9.794;2024-01-30T13:11:56;11.30;;;5.70;;
15968;SDS011;8085;53.472;9.794;2024-01-30T13:14:23;9.88;;;6.25;;
15968;SDS011;8085;53.472;9.794;2024-01-30T13:16:50;10.43;;;5.60;;
15968;SDS011;8085;53.472;9.794;2024-01-30T13:19:17;9.98;;;5.95;;
15968;SDS011;8085;53.472;9.794;2024-01-30T13:21:45;8.52;;;5.43;;
15968;SDS011;8085;53.472;9.794;2024-01-30T13:24:13;11.18;;;6.30;;
15968;SDS011;8085;53.472;9.794;2024-01-30T13:26:41;10.23;;;6.57;;
15968;SDS011;8085;53.472;9.794;2024-01-30T13:29:08;11.95;;;5.85;;
15968;SDS011;8085;53.472;9.794;2024-01-30T13:31:35;13.80;;;6.40;;
15968;SDS011;8085;53.472;9.794;2024-01-30T13:34:04;13.77;;;7.03;;
15968;SDS011;8085;53.472;9.794;2024-01-30T13:36:32;12.88;;;7.38;;
15968;SDS011;8085;53.472;9.794;2024-01-30T13:38:59;10.63;;;5.75;;
15968;SDS011;8085;53.472;9.794;2024-01-30T13:41:26;10.65;;;5.47;;
15968;SDS011;8085;53.472;9.794;2024-01-30T13:43:56;9.07;;;5.72;;
15968;SDS011;8085;53.472;9.794;2024-01-30T13:46:23;10.45;;;5.47;;
15968;SDS011;8085;53.472;9.794;2024-01-30T13:48:50;9.38;;;5.90;;
15968;SDS011;8085;53.472;9.794;2024-01-30T13:51:17;10.40;;;5.72;;
15968;SDS011;8085;53.472;9.794;2024-01-30T13:53:43;10.30;;;6.10;;
15968;SDS011;8085;53.472;9.794;2024-01-30T13:56:18;11.50;;;5.80;;
15968;SDS011;8085;53.472;9.794;2024-01-30T13:58:45;8.88;;;5.38;;
15968;SDS011;8085;53.472;9.794;2024-01-30T14:01:15;12.98;;;6.07;;
15968;SDS011;8085;53.472;9.794;2024-01-30T14:03:42;9.02;;;5.55;;
15968;SDS011;8085;53.472;9.794;2024-01-30T14:06:09;11.13;;;5.70;;
15968;SDS011;8085;53.472;9.794;2024-01-30T14:08:36;10.57;;;5.57;;
15968;SDS011;8085;53.472;9.794;2024-01-30T14:11:04;9.30;;;5.82;;
15968;SDS011;8085;53.472;9.794;2024-01-30T14:13:31;10.40;;;6.50;;
15968;SDS011;8085;53.472;9.794;2024-01-30T14:16:00;10.02;;;5.85;;
15968;SDS011;8085;53.472;9.794;2024-01-30T14:18:29;14.90;;;5.80;;
15968;SDS011;8085;53.472;9.794;2024-01-30T14:20:59;11.00;;;5.45;;
15968;SDS011;8085;53.472;9.794;2024-01-30T14:23:37;10.00;;;5.57;;
15968;SDS011;8085;53.472;9.794;2024-01-30T14:30:05;10.50;;;5.63;;
15968;SDS011;8085;53.472;9.794;2024-01-30T14:33:15;9.93;;;5.43;;
15968;SDS011;8085;53.472;9.794;2024-01-30T14:40:13;10.43;;;6.07;;
15968;SDS011;8085;53.472;9.794;2024-01-30T14:42:47;11.65;;;5.55;;
15968;SDS011;8085;53.472;9.794;2024-01-30T14:45:50;11.52;;;6.00;;
15968;SDS011;8085;53.472;9.794;2024-01-30T14:53:05;8.60;;;5.25;;
15968;SDS011;8085;53.472;9.794;2024-01-30T14:55:40;9.38;;;6.50;;
15968;SDS011;8085;53.472;9.794;2024-01-30T14:58:22;8.15;;;5.55;;
15968;SDS011;8085;53.472;9.794;2024-01-30T15:00:51;10.05;;;5.35;;
15968;SDS011;8085;53.472;9.794;2024-01-30T15:03:46;11.27;;;5.65;;
15968;SDS011;8085;53.472;9.794;2024-01-30T15:06:14;8.63;;;5.35;;
15968;SDS011;8085;53.472;9.794;2024-01-30T15:08:46;8.75;;;5.63;;
15968;SDS011;8085;53.472;9.794;2024-01-30T15:11:16;8.82;;;6.05;;
15968;SDS011;8085;53.472;9.794;2024-01-30T15:13:46;8.20;;;5.53;;
15968;SDS011;8085;53.472;9.794;2024-01-30T15:16:13;9.18;;;6.13;;
15968;SDS011;8085;53.472;9.794;2024-01-30T15:18:44;12.02;;;5.75;;
15968;SDS011;8085;53.472;9.794;2024-01-30T15:21:17;11.23;;;5.93;;
15968;SDS011;8085;53.472;9.794;2024-01-30T15:23:54;10.27;;;6.20;;
15968;SDS011;8085;53.472;9.794;2024-01-30T15:34:32;8.85;;;5.50;;
15968;SDS011;8085;53.472;9.794;2024-01-30T15:37:04;10.30;;;5.82;;
15968;SDS011;8085;53.472;9.794;2024-01-30T15:46:43;12.15;;;5.68;;
15968;SDS011;8085;53.472;9.794;2024-01-30T15:53:35;9.95;;;5.88;;
15968;SDS011;8085;53.472;9.794;2024-01-30T15:56:58;10.63;;;5.05;;
15968;SDS011;8085;53.472;9.794;2024-01-30T15:59:57;9.68;;;5.80;;